Flight Track Log - Related Links

Times and Time Zones

All times are in EDT time to prevent confusion due to time zone crossing. See the LXJ342 flight status page for this flight to view local times or setup timezone preferences in your user account.

Time Position Orientation Groundspeed Altitude Reporting Facility
EDT Latitude Longitude Course Direction KTS MPH feet Rate Location/Type
Thu 06:16:57 PM 38.8500 -76.0667 345° North 213 245 2,100  Level Potomac TRACON
Thu 06:17:57 PM 38.9000 -76.0833 345° North 218 251 2,200 1,571 Climbing Potomac TRACON
Thu 06:19:03 PM 38.9667 -76.1167 339° North 246 283 5,400 2,714 Climbing Potomac TRACON
Thu 06:20:03 PM 39.0333 -76.1500 339° North 271 312 7,900 1,350 Climbing Potomac TRACON
Thu 06:21:03 PM 39.0667 -76.2333 297° West 269 310 8,100 1,300 Climbing Potomac TRACON
Thu 06:22:03 PM 39.0833 -76.3167 284° West 272 313 10,500 1,900 Climbing Potomac TRACON
Thu 06:23:03 PM 39.1167 -76.4167 293° West 276 318 11,900 700 Climbing Potomac TRACON
Thu 06:24:03 PM 39.1333 -76.5167 282° West 314 361 11,900 50 Level Potomac TRACON
Thu 06:25:03 PM 39.1667 -76.6333 290° West 291 335 12,000 952 Climbing Potomac TRACON
Thu 06:26:09 PM 39.1833 -76.7667 279° West 273 314 13,900 905 Climbing Potomac TRACON
Thu 06:27:09 PM 39.2000 -76.8833 280° West 333 383 13,900 57 Level Potomac TRACON
Thu 06:27:54 PM 39.2039 -76.9469 275° West 354 407 14,000 1,748 Climbing Washington Center
Thu 06:28:52 PM 39.2189 -77.0944 278° West 345 397 16,900 1,563 Climbing Washington Center
Thu 06:29:53 PM 39.1736 -77.1953 240° Southwest 355 409 17,100 843 Climbing Washington Center
Thu 06:30:53 PM 39.0914 -77.2603 212° Southwest 355 409 18,600 1,983 Climbing Washington Center
Thu 06:31:54 PM 38.9931 -77.3008 198° South 373 429 21,100 2,168 Climbing Washington Center
Thu 06:32:52 PM 38.9147 -77.3872 221° Southwest 378 435 22,900 1,361 Climbing Washington Center
Thu 06:33:53 PM 38.9081 -77.5444 267° West 360 414 23,800 1,091 Climbing Washington Center
Thu 06:34:53 PM 38.8953 -77.6747 263° West 399 459 25,100 1,109 Climbing Washington Center
Thu 06:35:52 PM 38.8842 -77.8369 265° West 422 486 26,000 450 Climbing Washington Center
Thu 06:36:53 PM 38.8708 -77.9886 264° West 428 493 26,000  Level Washington Center
Thu 06:37:52 PM 38.8597 -78.1269 264° West 421 484 26,000  Level Washington Center
Thu 06:38:53 PM 38.8544 -78.2628 267° West 401 461 26,000  Level Washington Center
Thu 06:39:53 PM 38.8514 -78.4011 268° West 395 455 26,000  Level Washington Center
Thu 06:40:53 PM 38.8503 -78.5372 269° West 388 447 26,000  Level Washington Center
Thu 06:41:54 PM 38.8489 -78.6756 269° West 383 441 26,000  Level Washington Center
Thu 06:42:54 PM 38.8475 -78.8117 269° West 383 441 26,000  Level Washington Center
Thu 06:43:55 PM 38.8436 -78.9528 268° West 383 441 26,000  Level Washington Center
Thu 06:44:52 PM 38.8417 -79.0939 269° West 389 448 26,000  Level Washington Center
Thu 06:45:53 PM 38.8394 -79.2350 269° West 395 455 26,000  Level Washington Center
Thu 06:46:53 PM 38.8372 -79.3708 269° West 395 455 26,000  Level Washington Center
Thu 06:47:52 PM 38.8350 -79.5119 269° West 400 460 26,000  Level Washington Center
Thu 06:48:53 PM 38.8344 -79.6506 270° West 400 460 26,000  Level Washington Center
Thu 06:49:53 PM 38.8317 -79.7917 269° West 402 463 26,000  Level Washington Center
Thu 06:50:55 PM 38.8247 -79.9156 266° West 394 453 26,000  Level Indianapolis Center
Thu 06:51:58 PM 38.8208 -80.0842 268° West 394 453 26,000  Level Indianapolis Center
Thu 06:52:59 PM 38.8175 -80.2247 268° West 394 453 26,000  Level Indianapolis Center
Thu 06:54:03 PM 38.8131 -80.3669 268° West 395 455 26,000  Level Indianapolis Center
Thu 06:55:04 PM 38.8078 -80.5092 267° West 396 456 26,000  Level Indianapolis Center
Thu 06:56:08 PM 38.8044 -80.6525 268° West 400 460 26,000  Level Indianapolis Center
Thu 06:57:09 PM 38.7992 -80.7956 267° West 400 460 26,000  Level Indianapolis Center
Thu 06:58:09 PM 38.7875 -80.9672 265° West 402 463 26,000  Level Indianapolis Center
Thu 06:59:14 PM 38.7719 -81.1111 262° West 404 465 26,000  Level Indianapolis Center
Thu 07:00:14 PM 38.7578 -81.2564 263° West 408 470 26,000  Level Indianapolis Center
Thu 07:01:19 PM 38.7439 -81.4011 263° West 409 471 26,000  Level Indianapolis Center
Thu 07:02:20 PM 38.7275 -81.5603 263° West 409 471 26,000  Level Indianapolis Center
Thu 07:03:22 PM 38.7122 -81.7128 263° West 415 478 26,000  Level Indianapolis Center
Thu 07:04:23 PM 38.6969 -81.8594 262° West 416 479 26,000  Level Indianapolis Center
Thu 07:05:26 PM 38.6811 -82.0058 262° West 416 479 26,000  Level Indianapolis Center
Thu 07:06:28 PM 38.6653 -82.1561 262° West 422 486 26,000  Level Indianapolis Center
Thu 07:07:30 PM 38.6467 -82.3328 262° West 421 484 26,000  Level Indianapolis Center
Thu 07:08:30 PM 38.6300 -82.4811 262° West 421 484 26,000  Level Indianapolis Center
Thu 07:09:34 PM 38.6156 -82.6219 263° West 421 484 26,000  Level Indianapolis Center
Thu 07:10:35 PM 38.5986 -82.7703 262° West 421 484 26,000  Level Indianapolis Center
Thu 07:11:37 PM 38.5789 -82.9444 262° West 422 486 26,000  Level Indianapolis Center
Thu 07:12:41 PM 38.5611 -83.0969 262° West 428 493 26,000  Level Indianapolis Center
Thu 07:13:42 PM 38.5450 -83.2450 262° West 428 493 26,000  Level Indianapolis Center
Thu 07:14:43 PM 38.5267 -83.3936 261° West 428 493 26,000  Level Indianapolis Center
Thu 07:15:47 PM 38.5092 -83.5433 262° West 426 490 26,000  Level Indianapolis Center
Thu 07:16:48 PM 38.4886 -83.7183 262° West 427 491 26,000  Level Indianapolis Center
Thu 07:17:52 PM 38.4706 -83.8697 261° West 427 491 26,000  Level Indianapolis Center
Thu 07:18:52 PM 38.4517 -84.0194 261° West 428 493 26,000  Level Indianapolis Center
Thu 07:19:53 PM 38.4336 -84.1689 261° West 428 493 26,000  Level Indianapolis Center
Thu 07:20:58 PM 38.4147 -84.3208 261° West 428 493 26,000  Level Indianapolis Center
Thu 07:21:58 PM 38.3919 -84.4961 261° West 429 494 26,000  Level Indianapolis Center
Thu 07:23:00 PM 38.3733 -84.6469 261° West 429 494 26,000  Level Indianapolis Center
Thu 07:24:03 PM 38.3533 -84.8003 261° West 432 497 26,000  Level Indianapolis Center
Thu 07:25:04 PM 38.3339 -84.9519 261° West 432 497 26,000  Level Indianapolis Center
Thu 07:26:08 PM 38.3125 -85.1056 260° West 435 501 26,000  Level Indianapolis Center
Thu 07:27:08 PM 38.2914 -85.2728 261° West 437 503 26,000  Level Indianapolis Center
Thu 07:28:10 PM 38.2706 -85.4242 260° West 437 503 26,000  Level Indianapolis Center
Thu 07:29:11 PM 38.2508 -85.5781 261° West 437 503 26,000  Level Indianapolis Center
Thu 07:30:15 PM 38.2283 -85.7328 260° West 437 503 26,000  Level Indianapolis Center
Thu 07:31:17 PM 38.2075 -85.8850 260° West 437 503 26,000  Level Indianapolis Center
Thu 07:32:17 PM 38.1814 -86.0656 260° West 437 503 26,000  Level Indianapolis Center
Thu 07:33:49 PM 38.1522 -86.2778 260° West 436 502 26,000  Level Kansas City Center
Thu 07:34:51 PM 38.1308 -86.4278 260° West 434 499 26,000  Level Kansas City Center
Thu 07:35:23 PM 38.1175 -86.5161 259° West 432 497 26,000  Level Indianapolis Center
Thu 07:36:27 PM 38.0956 -86.6647 259° West 425 489 26,000  Level Indianapolis Center
Thu 07:37:29 PM 38.0725 -86.8153 259° West 426 490 26,000  Level Indianapolis Center
Thu 07:38:29 PM 38.0503 -86.9667 259° West 427 491 26,000  Level Indianapolis Center
Thu 07:40:01 PM 38.0133 -87.2072 259° West 429 494 26,000  Level Kansas City Center
Thu 07:40:33 PM 38.0047 -87.2681 260° West 427 491 26,000  Level Indianapolis Center
Thu 07:41:37 PM 37.9825 -87.4175 259° West 428 493 26,000  Level Indianapolis Center
Thu 07:42:37 PM 37.9544 -87.5967 259° West 427 491 26,000  Level Indianapolis Center
Thu 07:43:41 PM 37.9303 -87.7481 259° West 429 494 26,000  Level Indianapolis Center
Thu 07:44:42 PM 37.9103 -87.8986 260° West 431 496 26,000  Level Indianapolis Center
Thu 07:45:43 PM 37.8897 -88.0467 260° West 430 495 26,000  Level Indianapolis Center
Thu 07:46:46 PM 37.8708 -88.1958 261° West 430 495 26,000  Level Indianapolis Center
Thu 07:47:47 PM 37.8489 -88.3472 260° West 432 497 26,000  Level Indianapolis Center
Thu 07:48:18 PM 37.8358 -88.4358 259° West 432 497 26,000  Level Kansas City Center
Thu 07:49:20 PM 37.8144 -88.5850 260° West 431 496 26,000 -339 Level Kansas City Center
Thu 07:50:22 PM 37.7950 -88.7325 261° West 429 494 25,300 -968 Descending Kansas City Center
Thu 07:51:24 PM 37.7750 -88.8800 260° West 429 494 24,000 -629 Descending Kansas City Center
Thu 07:52:26 PM 37.7625 -89.0408 264° West 407 468 24,000 -194 Level Kansas City Center
Thu 07:53:28 PM 37.7844 -89.1567 284° West 365 420 23,600 -726 Descending Kansas City Center
Thu 07:54:30 PM 37.8053 -89.2675 283° West 344 396 22,500 -1,065 Descending Kansas City Center
Thu 07:55:32 PM 37.8267 -89.3742 284° West 331 381 21,400 -1,065 Descending Kansas City Center
Thu 07:56:34 PM 37.8444 -89.4747 283° West 312 359 20,300 -1,016 Descending Kansas City Center
Thu 07:57:36 PM 37.8656 -89.5758 285° West 303 349 19,300 -960 Descending Kansas City Center
Thu 07:58:39 PM 37.8836 -89.6750 283° West 296 341 18,300 -1,200 Descending Kansas City Center
Thu 07:59:41 PM 37.9181 -89.7861 291° West 288 331 16,800 -1,452 Descending Kansas City Center
Thu 08:00:43 PM 37.9675 -89.8614 310° West 279 321 15,300 -1,500 Descending Kansas City Center
Thu 08:01:45 PM 38.0219 -89.9425 310° West 279 321 13,700 -1,500 Descending Kansas City Center
Thu 08:02:47 PM 38.0722 -90.0186 310° West 280 322 12,200 -1,452 Descending Kansas City Center
Thu 08:03:49 PM 38.1194 -90.0906 310° West 270 311 10,700 -1,016 Descending Kansas City Center
Thu 08:04:51 PM 38.1700 -90.1669 310° West 267 307 10,100 -290 Descending Kansas City Center
Thu 08:05:53 PM 38.2169 -90.2383 310° West 264 304 10,100  Level Kansas City Center
Thu 08:06:55 PM 38.2678 -90.3161 310° West 264 304 10,100 -48 Level Kansas City Center
Thu 08:07:57 PM 38.3144 -90.3883 309° West 264 304 10,000 -48 Descending Kansas City Center
Thu 08:08:59 PM 38.3619 -90.4594 310° West 264 304 10,000  Level Kansas City Center
Thu 08:10:01 PM 38.4072 -90.5278 310° West 236 272 10,000  Level Kansas City Center
Thu 08:11:03 PM 38.4361 -90.5733 309° West 199 229 10,000  Level Kansas City Center
Thu 08:12:05 PM 38.4786 -90.6378 310° West 199 229 10,000  Level Kansas City Center
Thu 08:13:07 PM 38.5125 -90.6900 310° West 194 223 10,000  Level Kansas City Center
Thu 08:14:10 PM 38.5478 -90.7442 310° West 194 223 10,000 48 Level Kansas City Center
Thu 08:15:12 PM 38.5828 -90.7978 310° West 194 223 10,100  Climbing Kansas City Center
Thu 08:16:14 PM 38.6178 -90.8514 310° West 195 224 10,000 -48 Descending Kansas City Center
Thu 08:17:16 PM 38.6528 -90.9067 309° West 195 224 10,000 48 Level Kansas City Center
Thu 08:18:18 PM 38.6881 -90.9603 310° West 195 224 10,100  Climbing Kansas City Center
Thu 08:19:20 PM 38.7372 -90.9944 332° Northwest 169 194 10,000 -48 Descending Kansas City Center
Thu 08:20:22 PM 38.7817 -91.0117 343° North 161 185 10,000  Level Kansas City Center
Thu 08:21:24 PM 38.8306 -91.0292 344° North 175 201 10,000 -290 Level Kansas City Center
Thu 08:22:26 PM 38.8806 -91.0419 349° North 180 207 9,400 -1,258 Descending Kansas City Center
Thu 08:23:28 PM 38.8694 -90.9892 105° East 213 245 7,400 -1,935 Descending Kansas City Center
Thu 08:24:30 PM 38.8158 -90.9850 177° South 198 228 5,400 -2,098 Descending Kansas City Center
Thu 08:25:31 PM 38.7506 -90.9858 181° South 197 227 3,100 -1,220 Descending Kansas City Center
Thu 08:26:33 PM 38.7164 -90.9542 144° Southeast 185 213 2,900 -339 Descending Kansas City Center
Thu 08:27:35 PM 38.6956 -90.9014 117° Southeast 173 199 2,400 -242 Descending Kansas City Center
Thu 08:28:37 PM 38.6744 -90.8539 120° Southeast 164 189 2,400  Level Kansas City Center
Thu 08:29:39 PM 38.6558 -90.8067 117° Southeast 156 180 2,400 -145 Level Kansas City Center
Thu 08:30:41 PM 38.6439 -90.7589 108° East 151 174 2,100 -488 Descending Kansas City Center
Thu 08:31:42 PM 38.6489 -90.7125 82° East 141 162 1,400 -780 Descending Kansas City Center
Thu 08:32:44 PM 38.6578 -90.6594 78° East 132 152 500 -871 Descending Kansas City Center

Login

Don't have an account? Register now (free) for customized features, flight alerts, and more!